Details From KWYS - Yellowstone
To KORS - Orcas Island
Flight Number -
Tags decoded
Created
Modified
Stats Distance 603 nm / 1,117 km
Max Altitude 0 ft / 0 m
Waypoints 6
Social Downloads 1
Likes 0
Share VATSIM

Download

Looking for another format? Having issues loading an existing format? Contact us
Advertisement - Login to hide

Notes

Requested: KWYS PUFFS DBS LKT GEG HUH KORS Unmatched points: PUFFS

Route

KWYS DBS LKT GEG HUH KORS

ID Type Via Altitude Latitude Longitude Leg Dist Tot Dist Heading (true) Name
O KWYS APT - 0 ft / 0 m 44.68840˚ -111.11764˚ - 0 nm - Yellowstone
DBS VOR - 0 ft / 0 m 44.08886˚ -112.20933˚ 59 nm 59 nm 233° / 232° DUBOIS VORTAC
LKT VOR - 0 ft / 0 m 45.02131˚ -114.08425˚ 97 nm 156 nm 306° / 304° SALMON VOR-DME
GEG VOR - 0 ft / 0 m 47.56494˚ -117.62689˚ 211 nm 368 nm 317° / 315° SPOKANE VORTAC
HUH VOR - 0 ft / 0 m 48.94528˚ -122.57925˚ 214 nm 583 nm 295° / 291° WHATCOM VORTAC
O KORS APT - 0 ft / 0 m 48.70832˚ -122.91061˚ 19 nm 602 nm 223° / 223° Orcas Island

Altitude Profile

Advertisement - Login to hide

Weather


0- 5 10 15 20 25 30 35+ Temperature / ° C

Clouds and Precipitation
Forecast for 2017-12-18 00:00 UTC. Updated an hour ago

Ground ~20,000 ft ~40,000 ft Winds

KWYS

Details ICAO KWYS (WYS)
Name Yellowstone
Region United States
Timezone America/Denver (UTC-7.0)
Stats Elevation 6,644 ft / 2,025 m (AMSL)
Location 44.688398° -111.117638°
Runways 1
Magnetic Variation 11.723° E

METAR

KWYS 172010Z AUTO 22009KT 6SM BR OVC006 M09/M10 A3007 RMK AO2

Decode

TAF

Not found

Departure Runways

ID Width Length Bearing (true) Bearing (mag) Surface Threshold Offset Overrun Length
01 150 ft / 46 m 8,399 ft / 2,560 m 26.19° 14.47° Asphalt 0 ft / 0 m 0 ft / 0 m
19 150 ft / 46 m 8,399 ft / 2,560 m 206.20° 194.48° Asphalt 0 ft / 0 m 0 ft / 0 m

KORS

Details ICAO KORS (ESD)
Name Orcas Island
Region United States
Timezone America/Los_Angeles (UTC-8.0)
Stats Elevation 25 ft / 8 m (AMSL)
Location 48.708318° -122.910606°
Runways 1
Magnetic Variation 16.097° E

METAR

KORS 172015Z AUTO 19010G17KT 5SM -RA BKN012 OVC024 08/07 A3000 RMK AO2

Decode

TAF

Not found

Destination Runways

ID Width Length Bearing (true) Bearing (mag) Surface Threshold Offset Overrun Length
16 59 ft / 18 m 2,895 ft / 882 m 180.23° 164.13° Asphalt 0 ft / 0 m 240 ft / 73 m
34 59 ft / 18 m 2,895 ft / 882 m 0.23° 344.13° Asphalt 0 ft / 0 m 259 ft / 79 m

Popular Alternatives